D/T METAR WX W/DIR W/SPE G/SPE TEMP DEWP
15/01/19 18:00 EISG 151800Z 19007KT 160V240 9999 BKN024 BKN029 OVC044 10/07 Q1007 S (190°) 8.1mph 10°C 7°C
15/01/19 17:30 EISG 151730Z 19007KT 150V230 9999 SCT027 OVC045 10/07 Q1007 S (190°) 8.1mph 10°C 7°C
15/01/19 17:00 EISG 151700Z 20008KT 150V230 9999 SCT027 BKN039 OVC047 10/07 Q1007 SSW (200°) 9.2mph 10°C 7°C
15/01/19 16:30 EISG 151630Z 21011KT 170V230 9999 OVC038 10/06 Q1008 SSW (210°) 12.7mph 10°C 6°C
15/01/19 16:00 EISG 151600Z 22013G24KT 9000 BKN039 10/06 Q1008 SW (220°) 15.0mph 27.6mph 10°C 6°C
15/01/19 15:30 EISG 151530Z 22015KT 8000 BKN040 10/06 Q1009 SW (220°) 17.3mph 10°C 6°C
15/01/19 15:00 EISG 151500Z 22014KT 180V240 9999 BKN041 10/07 Q1009 SW (220°) 16.1mph 10°C 7°C
15/01/19 14:30 EISG 151430Z 22019KT 9000 SCT022 OVC036 10/07 Q1009 SW (220°) 21.9mph 10°C 7°C
15/01/19 14:00 EISG 151400Z 22011KT 190V250 9999 BKN025 BKN030 OVC035 10/07 Q1010 SW (220°) 12.7mph 10°C 7°C
15/01/19 13:30 EISG 151330Z 22014G26KT 9000 FEW019 BKN030 OVC043 10/08 Q1010 SW (220°) 16.1mph 29.9mph 10°C 8°C
15/01/19 13:00 EISG 151300Z 20006KT 160V230 9999 BKN024 OVC029 10/08 Q1011 SSW (200°) 6.9mph 10°C 8°C
15/01/19 12:30 EISG 151230Z 21008KT 170V230 9999 BKN023 BKN028 OVC038 10/08 Q1011 SSW (210°) 9.2mph 10°C 8°C
15/01/19 12:00 EISG 151200Z 21010KT 170V230 9999 BKN025 10/08 Q1012 SSW (210°) 11.5mph 10°C 8°C
15/01/19 11:30 EISG 151130Z 21006KT 160V240 9999 BKN023 09/07 Q1013 SSW (210°) 6.9mph 9°C 7°C
15/01/19 11:00 EISG 151100Z 20006KT 160V240 9999 OVC023 09/07 Q1013 SSW (200°) 6.9mph 9°C 7°C
15/01/19 10:30 EISG 151030Z 19004KT 130V260 9999 FEW018 BKN023 OVC029 09/06 Q1013 S (190°) 4.6mph 9°C 6°C
15/01/19 10:00 EISG 151000Z 17006KT 120V210 9999 BKN029 OVC038 09/06 Q1014 S (170°) 6.9mph 9°C 6°C
15/01/19 09:30 EISG 150930Z 21011KT 150V230 9000 OVC042 10/06 Q1014 SSW (210°) 12.7mph 10°C 6°C
15/01/19 09:00 EISG 150900Z 20007KT 140V230 9999 OVC047 09/05 Q1014 SSW (200°) 8.1mph 9°C 5°C
15/01/19 08:30 EISG 150830Z 22015KT 7000 OVC047 10/05 Q1014 SW (220°) 17.3mph 10°C 5°C
15/01/19 08:00 EISG 150800Z 22012KT 7000 OVC048 10/06 Q1014 SW (220°) 13.8mph 10°C 6°C
14/01/19 16:30 EISG 141630Z 22007KT 4900 BR FEW020 BKN028 OVC040 09/07 Q1021 BR SW (220°) 8.1mph 9°C 7°C
14/01/19 15:30 EISG 141530Z 23009KT 9999 FEW015 SCT028 OVC043 10/07 Q1021 SW (230°) 10.4mph 10°C 7°C
14/01/19 15:00 EISG 141500Z 24010KT 9999 FEW013 SCT029 BKN039 09/07 Q1021 WSW (240°) 11.5mph 9°C 7°C
14/01/19 14:30 EISG 141430Z 24010KT 9999 SCT023 BKN030 09/07 Q1021 WSW (240°) 11.5mph 9°C 7°C
14/01/19 14:00 EISG 141400Z 23009KT 9999 BKN021 09/07 Q1022 SW (230°) 10.4mph 9°C 7°C
14/01/19 13:30 EISG 141330Z 24009KT 9999 SCT013 BKN027 OVC033 08/07 Q1022 WSW (240°) 10.4mph 8°C 7°C
14/01/19 13:00 EISG 141300Z 23008KT 9999 SCT014 BKN020 OVC029 08/07 Q1023 SW (230°) 9.2mph 8°C 7°C
14/01/19 12:30 EISG 141230Z 24008KT 9999 FEW011 BKN016 OVC029 08/06 Q1023 WSW (240°) 9.2mph 8°C 6°C
14/01/19 12:00 EISG 141200Z 25007KT 9999 SCT019 BKN025 OVC038 08/05 Q1023 WSW (250°) 8.1mph 8°C 5°C
14/01/19 11:30 EISG 141130Z 25011KT 9999 OVC030 08/05 Q1023 WSW (250°) 12.7mph 8°C 5°C
14/01/19 11:00 EISG 141100Z 24008KT 9999 BKN039 08/04 Q1023 WSW (240°) 9.2mph 8°C 4°C
14/01/19 10:30 EISG 141030Z 24008KT 9000 BKN032 OVC039 08/04 Q1023 WSW (240°) 9.2mph 8°C 4°C
14/01/19 10:00 EISG 141000Z 24006KT 9999 BKN040 07/04 Q1023 WSW (240°) 6.9mph 7°C 4°C
14/01/19 09:30 EISG 140930Z 25009KT 9999 BKN036 08/04 Q1023 WSW (250°) 10.4mph 8°C 4°C
14/01/19 09:00 EISG 140900Z 30012KT 9999 OVC039 08/03 Q1023 WNW (300°) 13.8mph 8°C 3°C
14/01/19 08:30 EISG 140830Z 28013KT 9999 BKN039 08/03 Q1023 W (280°) 15.0mph 8°C 3°C
14/01/19 08:00 EISG 140800Z 28013KT 9999 OVC038 08/04 Q1023 W (280°) 15.0mph 8°C 4°C
13/01/19 17:30 EISG 131730Z 30020G32KT 8000 FEW028 SCT037 OVC047 09/05 Q1019 WNW (300°) 23.0mph 36.8mph 9°C 5°C
13/01/19 17:00 EISG 131700Z 29022G32KT 9000 FEW027 BKN033 OVC048 09/05 Q1018 WNW (290°) 25.3mph 36.8mph 9°C 5°C
13/01/19 16:30 EISG 131630Z 30020G30KT 9999 OVC044 09/04 Q1018 WNW (300°) 23.0mph 34.5mph 9°C 4°C
13/01/19 16:00 EISG 131600Z 30025KT 9999 OVC042 09/04 Q1018 WNW (300°) 28.8mph 9°C 4°C
13/01/19 15:30 EISG 131530Z 30024KT 9999 FEW029 SCT034 BKN042 09/04 Q1018 WNW (300°) 27.6mph 9°C 4°C
13/01/19 15:00 EISG 131500Z 30021G33KT 9000 BKN041 OVC047 09/05 Q1017 WNW (300°) 24.2mph 38.0mph 9°C 5°C
13/01/19 14:30 EISG 131430Z 30022KT 7000 FEW022 BKN037 OVC049 10/07 Q1017 WNW (300°) 25.3mph 10°C 7°C
13/01/19 14:00 EISG 131400Z 29021G32KT 8000 FEW034 BKN047 10/07 Q1017 WNW (290°) 24.2mph 36.8mph 10°C 7°C
13/01/19 13:30 EISG 131330Z 29022KT 8000 FEW035 SCT046 10/07 Q1017 WNW (290°) 25.3mph 10°C 7°C
13/01/19 13:00 EISG 131300Z 29023G34KT 3700 BR FEW016 BKN027 OVC049 09/08 Q1017 BR WNW (290°) 26.5mph 39.1mph 9°C 8°C
13/01/19 12:30 EISG 131230Z 28021KT 8000 OVC042 10/08 Q1017 W (280°) 24.2mph 10°C 8°C
13/01/19 12:00 EISG 131200Z 28020KT 9000 SCT032 OVC039 10/09 Q1017 W (280°) 23.0mph 10°C 9°C
13/01/19 11:30 EISG 131130Z 28024G35KT 4900 FEW020 OVC031 10/08 Q1017 W (280°) 27.6mph 40.3mph 10°C 8°C
13/01/19 11:00 EISG 131100Z 28026KT 9999 BKN027 OVC033 10/08 Q1017 W (280°) 29.9mph 10°C 8°C
13/01/19 10:30 EISG 131030Z 28021KT 9000 FEW007 SCT013 OVC024 10/10 Q1017 W (280°) 24.2mph 10°C 10°C
13/01/19 10:00 EISG 131000Z 28019KT 3000 -RA BKN006 BKN013 OVC020 10/10 Q1017 -RA W (280°) 21.9mph 10°C 10°C
13/01/19 09:30 EISG 130930Z 28022KT 3100 BR SCT005 BKN010 OVC015 10/10 Q1017 BR W (280°) 25.3mph 10°C 10°C
13/01/19 09:00 EISG 130900Z 28023KT 2700 -RA OVC007 10/10 Q1017 -RA W (280°) 26.5mph 10°C 10°C
13/01/19 08:30 EISG 130830Z 27022KT 5000 BR BKN008 OVC013 10/10 Q1017 BR W (270°) 25.3mph 10°C 10°C
13/01/19 08:00 EISG 130800Z 27021KT 3100 -RA OVC007 10/10 Q1017 -RA W (270°) 24.2mph 10°C 10°C
12/01/19 17:30 EISG 121730Z 26017KT 7000 OVC010 10/09 Q1024 W (260°) 19.6mph 10°C 9°C
12/01/19 17:00 EISG 121700Z 26014KT 6000 BKN012 10/09 Q1024 W (260°) 16.1mph 10°C 9°C
12/01/19 16:30 EISG 121630Z 25013KT 8000 NSC 10/09 Q1023 WSW (250°) 15.0mph 10°C 9°C
12/01/19 16:00 EISG 121600Z 26013KT 6000 NSC 10/09 Q1024 W (260°) 15.0mph 10°C 9°C
12/01/19 15:30 EISG 121530Z 26014KT 7000 FEW018 10/09 Q1024 W (260°) 16.1mph 10°C 9°C
12/01/19 15:00 EISG 121500Z 27016KT 7000 NSC 10/09 Q1024 W (270°) 18.4mph 10°C 9°C
12/01/19 14:30 EISG 121430Z 27017KT 8000 BKN017 11/09 Q1024 W (270°) 19.6mph 11°C 9°C
12/01/19 14:00 EISG 121400Z 27019KT 8000 OVC012 10/09 Q1024 W (270°) 21.9mph 10°C 9°C
12/01/19 13:30 EISG 121330Z 27019KT 7000 OVC012 10/09 Q1025 W (270°) 21.9mph 10°C 9°C
12/01/19 13:00 EISG 121300Z 27019KT 8000 OVC012 10/09 Q1025 W (270°) 21.9mph 10°C 9°C
12/01/19 12:30 EISG 121230Z 27019KT 7000 BKN010 OVC015 10/09 Q1025 W (270°) 21.9mph 10°C 9°C
12/01/19 12:00 EISG 121200Z 27018KT 5000 BR BKN008 OVC013 09/09 Q1025 BR W (270°) 20.7mph 9°C 9°C
12/01/19 11:30 EISG 121130Z 27018KT 6000 BKN007 OVC012 09/09 Q1025 W (270°) 20.7mph 9°C 9°C
12/01/19 11:00 EISG 121100Z 27019KT 4200 BR OVC009 09/09 Q1026 BR W (270°) 21.9mph 9°C 9°C
12/01/19 10:30 EISG 121030Z 28019KT 5000 BR OVC012 09/08 Q1025 BR W (280°) 21.9mph 9°C 8°C
12/01/19 10:00 EISG 121000Z 28019G30KT 7000 OVC014 09/08 Q1025 W (280°) 21.9mph 34.5mph 9°C 8°C
12/01/19 09:30 EISG 120930Z 28017G27KT 9000 BKN018 OVC023 09/08 Q1025 W (280°) 19.6mph 31.1mph 9°C 8°C
12/01/19 09:00 EISG 120900Z 28020KT 7000 OVC019 09/07 Q1025 W (280°) 23.0mph 9°C 7°C
12/01/19 08:30 EISG 120830Z 28017KT 9000 FEW016 BKN023 OVC031 09/07 Q1025 W (280°) 19.6mph 9°C 7°C
12/01/19 08:00 EISG 120800Z 28018KT 9000 FEW018 BKN024 OVC035 09/07 Q1025 W (280°) 20.7mph 9°C 7°C
11/01/19 17:00 EISG 111700Z 24006KT 9000 SCT010 OVC020 09/08 Q1030 WSW (240°) 6.9mph 9°C 8°C
11/01/19 16:30 EISG 111630Z 24007KT 9999 SCT013 BKN025 09/08 Q1030 WSW (240°) 8.1mph 9°C 8°C
11/01/19 15:00 EISG 111500Z 25006KT 9000 SCT010 BKN025 09/09 Q1031 WSW (250°) 6.9mph 9°C 9°C
11/01/19 14:30 EISG 111430Z 26011KT 9999 FEW013 OVC023 09/08 Q1031 W (260°) 12.7mph 9°C 8°C
11/01/19 14:00 EISG 111400Z 26007KT 9999 FEW006 BKN015 09/09 Q1031 W (260°) 8.1mph 9°C 9°C
11/01/19 11:00 EISG 111100Z 24007KT 9999 FEW012 SCT043 09/07 Q1033 WSW (240°) 8.1mph 9°C 7°C
11/01/19 10:30 EISG 111030Z 24006KT 9999 FEW012 SCT036 09/08 Q1034 WSW (240°) 6.9mph 9°C 8°C
11/01/19 10:00 EISG 111000Z 25004KT 9999 FEW008 SCT036 09/08 Q1033 WSW (250°) 4.6mph 9°C 8°C
11/01/19 09:30 EISG 110930Z 25007KT 9999 FEW016 SCT037 BKN045 08/08 Q1033 WSW (250°) 8.1mph 8°C 8°C
11/01/19 09:00 EISG 110900Z 25006KT 9999 FEW007 SCT037 BKN050 08/08 Q1033 WSW (250°) 6.9mph 8°C 8°C
10/01/19 17:00 EISG 101700Z 23003KT CAVOK 09/08 Q1034 SW (230°) 3.5mph 9°C 8°C
10/01/19 16:30 EISG 101630Z 22004KT CAVOK 09/08 Q1033 SW (220°) 4.6mph 9°C 8°C
10/01/19 15:30 EISG 101530Z 24002KT CAVOK 10/09 Q1033 WSW (240°) 2.3mph 10°C 9°C
10/01/19 15:00 EISG 101500Z VRB02KT CAVOK 10/09 Q1033 N (0°) 2.3mph 10°C 9°C
10/01/19 14:00 EISG 101400Z VRB01KT CAVOK 10/09 Q1034 N (0°) 1.2mph 10°C 9°C
10/01/19 13:30 EISG 101330Z 00000KT CAVOK 10/09 Q1034 N (0°) 10°C 9°C
10/01/19 13:00 EISG 101300Z VRB01KT CAVOK 10/09 Q1034 N (0°) 1.2mph 10°C 9°C
10/01/19 12:00 EISG 101200Z VRB03KT CAVOK 10/09 Q1034 N (0°) 3.5mph 10°C 9°C
10/01/19 11:30 EISG 101130Z VRB02KT CAVOK 10/09 Q1034 N (0°) 2.3mph 10°C 9°C
10/01/19 11:00 EISG 101100Z 23002KT 9000 NSC 09/09 Q1034 SW (230°) 2.3mph 9°C 9°C
10/01/19 10:30 EISG 101030Z VRB02KT CAVOK 09/09 Q1034 N (0°) 2.3mph 9°C 9°C
10/01/19 10:00 EISG 101000Z VRB02KT CAVOK 09/09 Q1034 N (0°) 2.3mph 9°C 9°C
10/01/19 09:30 EISG 100930Z VRB01KT CAVOK 09/09 Q1034 N (0°) 1.2mph 9°C 9°C
10/01/19 09:00 EISG 100900Z 22002KT CAVOK 09/09 Q1034 SW (220°) 2.3mph 9°C 9°C
10/01/19 08:30 EISG 100830Z VRB03KT 7000 NSC 09/09 Q1034 N (0°) 3.5mph 9°C 9°C
10/01/19 08:00 EISG 100800Z 26005KT 8000 NSC 09/09 Q1033 W (260°) 5.8mph 9°C 9°C
9/01/19 17:00 EISG 091700Z 28002KT 0750 FG VV001 09/09 Q1033 FG W (280°) 2.3mph 9°C 9°C
9/01/19 16:30 EISG 091630Z 30003KT 0800 FG VV002 09/09 Q1033 FG WNW (300°) 3.5mph 9°C 9°C
9/01/19 16:00 EISG 091600Z 30001KT 0700 FG VV001 09/09 Q1033 FG WNW (300°) 1.2mph 9°C 9°C
9/01/19 15:30 EISG 091530Z 22002KT 0550 FG VV001 09/09 Q1033 FG SW (220°) 2.3mph 9°C 9°C
9/01/19 15:00 EISG 091500Z 25002KT 0600 FG VV001 09/09 Q1033 FG WSW (250°) 2.3mph 9°C 9°C
9/01/19 14:00 EISG 091400Z VRB01KT 6000 OVC003 09/09 Q1033 N (0°) 1.2mph 9°C 9°C
9/01/19 13:30 EISG 091330Z 10002KT 4400 BR BKN004 OVC017 09/09 Q1033 BR E (100°) 2.3mph 9°C 9°C
9/01/19 11:30 EISG 091130Z 36001KT 3200 BR OVC002 08/08 Q1034 BR N (360°) 1.2mph 8°C 8°C
9/01/19 11:00 EISG 091100Z VRB01KT 2600 BR BKN002 BKN010 OVC016 08/08 Q1034 BR N (0°) 1.2mph 8°C 8°C
9/01/19 10:30 EISG 091030Z 02001KT 2300 BR FEW003 BKN018 08/08 Q1034 BR NNE (20°) 1.2mph 8°C 8°C
9/01/19 10:00 EISG 091000Z 00000KT 1100 PRFG OVC003 08/08 Q1034 PRFG N (0°) 8°C 8°C
9/01/19 09:00 EISG 090900Z 08001KT 0800 FG VV002 08/08 Q1034 FG E (80°) 1.2mph 8°C 8°C
9/01/19 08:30 EISG 090830Z 07001KT 2000 PRFG OVC001 08/08 Q1034 PRFG ENE (70°) 1.2mph 8°C 8°C
9/01/19 08:00 EISG 090800Z 00000KT 2200 BR BKN002 OVC007 08/08 Q1033 BR N (0°) 8°C 8°C
9/01/19 07:30 EISG 090730Z 00000KT 2200 PRFG OVC008 08/08 Q1033 PRFG N (0°) 8°C 8°C
8/01/19 16:30 EISG 081630Z 33004KT 7000 FEW018 SCT029 08/07 Q1034 NNW (330°) 4.6mph 8°C 7°C
8/01/19 16:00 EISG 081600Z 31008KT 9999 FEW017 SCT028 BKN050 09/07 Q1034 NW (310°) 9.2mph 9°C 7°C
8/01/19 15:30 EISG 081530Z 31009KT 9999 FEW015 SCT035 09/07 Q1034 NW (310°) 10.4mph 9°C 7°C
8/01/19 13:30 EISG 081330Z 31008KT 8000 FEW021 BKN035 09/07 Q1035 NW (310°) 9.2mph 9°C 7°C
8/01/19 13:00 EISG 081300Z 31008KT 9999 SCT022 BKN029 09/07 Q1035 NW (310°) 9.2mph 9°C 7°C
8/01/19 12:30 EISG 081230Z 30007KT 9999 SCT023 BKN029 09/06 Q1035 WNW (300°) 8.1mph 9°C 6°C
8/01/19 12:00 EISG 081200Z 32007KT 9999 FEW020 SCT024 BKN032 09/07 Q1035 NW (320°) 8.1mph 9°C 7°C
8/01/19 11:00 EISG 081100Z 31009KT 9999 FEW017 SCT024 OVC029 09/06 Q1035 NW (310°) 10.4mph 9°C 6°C
8/01/19 10:30 EISG 081030Z 31008KT 9999 FEW018 BKN029 09/06 Q1035 NW (310°) 9.2mph 9°C 6°C
8/01/19 10:00 EISG 081000Z 31008KT 9999 FEW020 BKN029 09/06 Q1035 NW (310°) 9.2mph 9°C 6°C
8/01/19 08:30 EISG 080830Z 32010KT 9999 OVC033 09/05 Q1034 NW (320°) 11.5mph 9°C 5°C
7/01/19 17:00 EISG 071700Z 30012KT 8000 OVC037 09/07 Q1031 WNW (300°) 13.8mph 9°C 7°C
7/01/19 16:30 EISG 071630Z 29013KT 8000 SCT027 OVC038 09/07 Q1031 WNW (290°) 15.0mph 9°C 7°C
7/01/19 16:00 EISG 071600Z 29015KT 9000 NSC 09/06 Q1031 WNW (290°) 17.3mph 9°C 6°C
7/01/19 15:30 EISG 071530Z 29014KT 8000 NSC 09/06 Q1030 WNW (290°) 16.1mph 9°C 6°C
7/01/19 14:30 EISG 071430Z 29014KT 9000 SCT030 10/07 Q1030 WNW (290°) 16.1mph 10°C 7°C
7/01/19 14:00 EISG 071400Z 29014KT 8000 SCT019 SCT026 10/07 Q1030 WNW (290°) 16.1mph 10°C 7°C
7/01/19 13:00 EISG 071300Z 28012KT 8000 SCT035 10/08 Q1030 W (280°) 13.8mph 10°C 8°C
7/01/19 12:30 EISG 071230Z 29015KT 7000 FEW025 OVC036 10/08 Q1030 WNW (290°) 17.3mph 10°C 8°C
7/01/19 12:00 EISG 071200Z 29012KT 7000 OVC024 10/09 Q1030 WNW (290°) 13.8mph 10°C 9°C
7/01/19 11:00 EISG 071100Z 27013KT 1800 -RA BKN006 OVC011 10/10 Q1029 -RA W (270°) 15.0mph 10°C 10°C
7/01/19 10:30 EISG 071030Z 25016KT 5000 OVC013 11/11 Q1029 WSW (250°) 18.4mph 11°C 11°C
7/01/19 10:00 EISG 071000Z 25017KT 4300 BR BKN012 OVC018 11/11 Q1029 BR WSW (250°) 19.6mph 11°C 11°C
7/01/19 09:30 EISG 070930Z 24017KT 5000 BR BKN014 OVC021 11/11 Q1028 BR WSW (240°) 19.6mph 11°C 11°C
7/01/19 09:00 EISG 070900Z 24019KT 5000 BR SCT015 OVC024 11/10 Q1028 BR WSW (240°) 21.9mph 11°C 10°C